sensor_id;sensor_type;location;lat;lon;timestamp;P1;durP1;ratioP1;P2;durP2;ratioP2
15712;SDS011;7957;51.608;6.916;2023-04-25T00:01:58;14.50;;;7.17;;
15712;SDS011;7957;51.608;6.916;2023-04-25T00:04:25;11.07;;;6.67;;
15712;SDS011;7957;51.608;6.916;2023-04-25T00:06:53;11.30;;;5.73;;
15712;SDS011;7957;51.608;6.916;2023-04-25T00:09:20;12.07;;;6.50;;
15712;SDS011;7957;51.608;6.916;2023-04-25T00:11:47;10.47;;;6.03;;
15712;SDS011;7957;51.608;6.916;2023-04-25T00:14:14;11.83;;;6.00;;
15712;SDS011;7957;51.608;6.916;2023-04-25T00:16:41;10.30;;;5.93;;
15712;SDS011;7957;51.608;6.916;2023-04-25T00:19:10;12.10;;;6.07;;
15712;SDS011;7957;51.608;6.916;2023-04-25T00:21:38;8.97;;;5.20;;
15712;SDS011;7957;51.608;6.916;2023-04-25T00:24:08;10.57;;;5.60;;
15712;SDS011;7957;51.608;6.916;2023-04-25T00:26:35;12.53;;;5.43;;
15712;SDS011;7957;51.608;6.916;2023-04-25T00:29:02;12.33;;;6.03;;
15712;SDS011;7957;51.608;6.916;2023-04-25T00:31:29;9.30;;;5.57;;
15712;SDS011;7957;51.608;6.916;2023-04-25T00:33:56;9.60;;;5.83;;
15712;SDS011;7957;51.608;6.916;2023-04-25T00:36:25;8.70;;;5.40;;
15712;SDS011;7957;51.608;6.916;2023-04-25T00:38:52;11.70;;;5.77;;
15712;SDS011;7957;51.608;6.916;2023-04-25T00:41:20;9.80;;;5.67;;
15712;SDS011;7957;51.608;6.916;2023-04-25T00:43:49;10.30;;;5.90;;
15712;SDS011;7957;51.608;6.916;2023-04-25T00:46:18;9.77;;;5.57;;
15712;SDS011;7957;51.608;6.916;2023-04-25T00:48:45;12.80;;;5.53;;
15712;SDS011;7957;51.608;6.916;2023-04-25T00:51:13;10.43;;;5.93;;
15712;SDS011;7957;51.608;6.916;2023-04-25T00:53:44;12.20;;;6.50;;
15712;SDS011;7957;51.608;6.916;2023-04-25T00:56:18;10.80;;;5.83;;
15712;SDS011;7957;51.608;6.916;2023-04-25T00:58:46;10.53;;;5.57;;
15712;SDS011;7957;51.608;6.916;2023-04-25T01:01:14;12.03;;;5.77;;
15712;SDS011;7957;51.608;6.916;2023-04-25T01:03:41;13.43;;;6.60;;
15712;SDS011;7957;51.608;6.916;2023-04-25T01:06:12;10.87;;;6.13;;
15712;SDS011;7957;51.608;6.916;2023-04-25T01:08:39;11.07;;;5.90;;
15712;SDS011;7957;51.608;6.916;2023-04-25T01:11:08;13.33;;;6.33;;
15712;SDS011;7957;51.608;6.916;2023-04-25T01:13:35;9.40;;;6.00;;
15712;SDS011;7957;51.608;6.916;2023-04-25T01:16:02;8.93;;;6.17;;
15712;SDS011;7957;51.608;6.916;2023-04-25T01:18:30;7.47;;;5.73;;
15712;SDS011;7957;51.608;6.916;2023-04-25T01:23:33;9.47;;;5.77;;
15712;SDS011;7957;51.608;6.916;2023-04-25T01:26:00;9.23;;;5.77;;
15712;SDS011;7957;51.608;6.916;2023-04-25T01:28:27;9.03;;;5.57;;
15712;SDS011;7957;51.608;6.916;2023-04-25T01:30:55;12.00;;;6.37;;
15712;SDS011;7957;51.608;6.916;2023-04-25T01:33:23;10.87;;;5.87;;
15712;SDS011;7957;51.608;6.916;2023-04-25T01:35:50;12.03;;;6.63;;
15712;SDS011;7957;51.608;6.916;2023-04-25T01:38:19;10.67;;;5.90;;
15712;SDS011;7957;51.608;6.916;2023-04-25T01:40:46;11.93;;;6.90;;
15712;SDS011;7957;51.608;6.916;2023-04-25T01:43:13;9.90;;;6.20;;
15712;SDS011;7957;51.608;6.916;2023-04-25T01:45:40;10.50;;;6.57;;
15712;SDS011;7957;51.608;6.916;2023-04-25T01:48:08;9.97;;;6.10;;
15712;SDS011;7957;51.608;6.916;2023-04-25T01:50:36;9.13;;;6.60;;
15712;SDS011;7957;51.608;6.916;2023-04-25T01:53:04;8.20;;;5.97;;
15712;SDS011;7957;51.608;6.916;2023-04-25T01:55:32;11.70;;;6.27;;
15712;SDS011;7957;51.608;6.916;2023-04-25T01:58:00;11.10;;;6.33;;
15712;SDS011;7957;51.608;6.916;2023-04-25T02:00:28;9.77;;;6.23;;
15712;SDS011;7957;51.608;6.916;2023-04-25T02:02:57;11.17;;;6.50;;
15712;SDS011;7957;51.608;6.916;2023-04-25T02:05:24;12.87;;;6.73;;
15712;SDS011;7957;51.608;6.916;2023-04-25T02:07:51;11.57;;;6.27;;
15712;SDS011;7957;51.608;6.916;2023-04-25T02:10:18;8.53;;;6.10;;
15712;SDS011;7957;51.608;6.916;2023-04-25T02:12:47;10.20;;;6.63;;
15712;SDS011;7957;51.608;6.916;2023-04-25T02:15:14;12.80;;;6.67;;
15712;SDS011;7957;51.608;6.916;2023-04-25T02:17:41;11.67;;;6.47;;
15712;SDS011;7957;51.608;6.916;2023-04-25T02:20:10;12.33;;;6.20;;
15712;SDS011;7957;51.608;6.916;2023-04-25T02:22:37;9.77;;;6.20;;
15712;SDS011;7957;51.608;6.916;2023-04-25T02:25:05;10.20;;;6.03;;
15712;SDS011;7957;51.608;6.916;2023-04-25T02:27:33;11.83;;;6.30;;
15712;SDS011;7957;51.608;6.916;2023-04-25T02:30:01;10.97;;;6.87;;
15712;SDS011;7957;51.608;6.916;2023-04-25T02:32:29;11.20;;;6.53;;
15712;SDS011;7957;51.608;6.916;2023-04-25T02:34:56;10.80;;;6.80;;
15712;SDS011;7957;51.608;6.916;2023-04-25T02:37:28;12.17;;;7.00;;
15712;SDS011;7957;51.608;6.916;2023-04-25T02:39:56;7.57;;;5.37;;
15712;SDS011;7957;51.608;6.916;2023-04-25T02:42:23;12.97;;;6.80;;
15712;SDS011;7957;51.608;6.916;2023-04-25T02:44:50;13.83;;;6.93;;
15712;SDS011;7957;51.608;6.916;2023-04-25T02:47:19;9.90;;;6.30;;
15712;SDS011;7957;51.608;6.916;2023-04-25T02:49:46;9.83;;;6.33;;
15712;SDS011;7957;51.608;6.916;2023-04-25T02:52:13;11.83;;;6.37;;
15712;SDS011;7957;51.608;6.916;2023-04-25T02:54:40;11.27;;;6.40;;
15712;SDS011;7957;51.608;6.916;2023-04-25T02:57:07;10.17;;;6.30;;
15712;SDS011;7957;51.608;6.916;2023-04-25T02:59:34;10.77;;;6.70;;
15712;SDS011;7957;51.608;6.916;2023-04-25T03:02:01;13.00;;;6.70;;
15712;SDS011;7957;51.608;6.916;2023-04-25T03:04:30;11.87;;;6.33;;
15712;SDS011;7957;51.608;6.916;2023-04-25T03:06:58;11.37;;;6.27;;
15712;SDS011;7957;51.608;6.916;2023-04-25T03:09:26;11.40;;;6.40;;
15712;SDS011;7957;51.608;6.916;2023-04-25T03:11:53;13.17;;;6.83;;
15712;SDS011;7957;51.608;6.916;2023-04-25T03:14:20;12.53;;;6.47;;
15712;SDS011;7957;51.608;6.916;2023-04-25T03:16:47;12.57;;;6.27;;
15712;SDS011;7957;51.608;6.916;2023-04-25T03:19:14;9.70;;;6.40;;
15712;SDS011;7957;51.608;6.916;2023-04-25T03:21:44;12.43;;;6.77;;
15712;SDS011;7957;51.608;6.916;2023-04-25T03:24:10;12.63;;;7.00;;
15712;SDS011;7957;51.608;6.916;2023-04-25T03:26:38;14.90;;;7.10;;
15712;SDS011;7957;51.608;6.916;2023-04-25T03:29:05;14.17;;;7.40;;
15712;SDS011;7957;51.608;6.916;2023-04-25T03:31:32;11.60;;;6.30;;
15712;SDS011;7957;51.608;6.916;2023-04-25T03:34:02;13.30;;;6.67;;
15712;SDS011;7957;51.608;6.916;2023-04-25T03:36:29;12.20;;;6.63;;
15712;SDS011;7957;51.608;6.916;2023-04-25T03:38:57;9.30;;;5.80;;
15712;SDS011;7957;51.608;6.916;2023-04-25T03:44:30;9.70;;;5.93;;
15712;SDS011;7957;51.608;6.916;2023-04-25T03:46:57;10.23;;;6.00;;
15712;SDS011;7957;51.608;6.916;2023-04-25T03:49:24;8.90;;;5.53;;
15712;SDS011;7957;51.608;6.916;2023-04-25T03:51:51;8.87;;;5.20;;
15712;SDS011;7957;51.608;6.916;2023-04-25T03:54:20;11.60;;;5.33;;
15712;SDS011;7957;51.608;6.916;2023-04-25T03:56:47;11.40;;;5.30;;
15712;SDS011;7957;51.608;6.916;2023-04-25T03:59:14;11.40;;;5.13;;
15712;SDS011;7957;51.608;6.916;2023-04-25T04:01:41;9.53;;;5.20;;
15712;SDS011;7957;51.608;6.916;2023-04-25T04:04:08;8.47;;;5.17;;
15712;SDS011;7957;51.608;6.916;2023-04-25T04:06:35;9.63;;;5.17;;
15712;SDS011;7957;51.608;6.916;2023-04-25T04:09:02;9.77;;;5.43;;
15712;SDS011;7957;51.608;6.916;2023-04-25T04:11:30;9.57;;;4.80;;
15712;SDS011;7957;51.608;6.916;2023-04-25T04:13:58;8.07;;;4.53;;
15712;SDS011;7957;51.608;6.916;2023-04-25T04:16:25;9.80;;;4.43;;
15712;SDS011;7957;51.608;6.916;2023-04-25T04:18:52;9.87;;;4.93;;
15712;SDS011;7957;51.608;6.916;2023-04-25T04:21:19;7.33;;;4.23;;
15712;SDS011;7957;51.608;6.916;2023-04-25T04:23:46;10.97;;;4.63;;
15712;SDS011;7957;51.608;6.916;2023-04-25T04:26:13;7.90;;;4.30;;
15712;SDS011;7957;51.608;6.916;2023-04-25T04:28:42;7.80;;;4.27;;
15712;SDS011;7957;51.608;6.916;2023-04-25T04:31:10;10.20;;;4.27;;
15712;SDS011;7957;51.608;6.916;2023-04-25T04:33:37;9.03;;;3.80;;
15712;SDS011;7957;51.608;6.916;2023-04-25T04:36:05;8.17;;;4.47;;
15712;SDS011;7957;51.608;6.916;2023-04-25T04:38:33;8.43;;;3.80;;
15712;SDS011;7957;51.608;6.916;2023-04-25T04:41:01;10.03;;;4.70;;
15712;SDS011;7957;51.608;6.916;2023-04-25T04:43:28;7.50;;;4.47;;
15712;SDS011;7957;51.608;6.916;2023-04-25T04:45:59;10.00;;;5.27;;
15712;SDS011;7957;51.608;6.916;2023-04-25T04:48:28;8.90;;;5.30;;
15712;SDS011;7957;51.608;6.916;2023-04-25T04:50:57;8.70;;;5.13;;
15712;SDS011;7957;51.608;6.916;2023-04-25T04:53:24;10.10;;;5.20;;
15712;SDS011;7957;51.608;6.916;2023-04-25T04:55:51;9.73;;;5.77;;
15712;SDS011;7957;51.608;6.916;2023-04-25T04:58:18;13.23;;;6.63;;
15712;SDS011;7957;51.608;6.916;2023-04-25T05:00:51;12.37;;;6.27;;
15712;SDS011;7957;51.608;6.916;2023-04-25T05:03:20;14.03;;;6.83;;
15712;SDS011;7957;51.608;6.916;2023-04-25T05:05:47;14.77;;;6.63;;
15712;SDS011;7957;51.608;6.916;2023-04-25T05:08:14;14.90;;;6.77;;
15712;SDS011;7957;51.608;6.916;2023-04-25T05:10:41;14.33;;;6.37;;
15712;SDS011;7957;51.608;6.916;2023-04-25T05:13:08;12.73;;;6.80;;
15712;SDS011;7957;51.608;6.916;2023-04-25T05:15:35;14.20;;;6.60;;
15712;SDS011;7957;51.608;6.916;2023-04-25T05:18:02;12.47;;;7.23;;
15712;SDS011;7957;51.608;6.916;2023-04-25T05:20:31;13.67;;;6.80;;
15712;SDS011;7957;51.608;6.916;2023-04-25T05:22:58;11.50;;;6.57;;
15712;SDS011;7957;51.608;6.916;2023-04-25T05:25:25;13.40;;;7.27;;
15712;SDS011;7957;51.608;6.916;2023-04-25T05:27:52;13.00;;;7.27;;
15712;SDS011;7957;51.608;6.916;2023-04-25T05:30:20;14.60;;;7.03;;
15712;SDS011;7957;51.608;6.916;2023-04-25T05:32:47;12.50;;;6.73;;
15712;SDS011;7957;51.608;6.916;2023-04-25T05:35:14;15.97;;;7.80;;
15712;SDS011;7957;51.608;6.916;2023-04-25T05:37:43;13.87;;;6.93;;
15712;SDS011;7957;51.608;6.916;2023-04-25T05:40:10;15.47;;;7.33;;
15712;SDS011;7957;51.608;6.916;2023-04-25T05:42:37;15.70;;;7.40;;
15712;SDS011;7957;51.608;6.916;2023-04-25T05:45:05;14.07;;;7.43;;
15712;SDS011;7957;51.608;6.916;2023-04-25T05:47:33;14.37;;;7.60;;
15712;SDS011;7957;51.608;6.916;2023-04-25T05:50:00;14.23;;;7.07;;
15712;SDS011;7957;51.608;6.916;2023-04-25T05:52:27;16.57;;;7.47;;
15712;SDS011;7957;51.608;6.916;2023-04-25T05:54:55;11.57;;;6.40;;
15712;SDS011;7957;51.608;6.916;2023-04-25T05:57:24;12.37;;;7.00;;
15712;SDS011;7957;51.608;6.916;2023-04-25T05:59:54;13.73;;;6.43;;
15712;SDS011;7957;51.608;6.916;2023-04-25T06:02:21;14.43;;;6.77;;
15712;SDS011;7957;51.608;6.916;2023-04-25T06:04:49;11.13;;;6.40;;
15712;SDS011;7957;51.608;6.916;2023-04-25T06:07:16;15.80;;;7.80;;
15712;SDS011;7957;51.608;6.916;2023-04-25T06:09:43;8.90;;;6.17;;
15712;SDS011;7957;51.608;6.916;2023-04-25T06:12:12;12.17;;;6.73;;
15712;SDS011;7957;51.608;6.916;2023-04-25T06:14:40;12.10;;;6.37;;
15712;SDS011;7957;51.608;6.916;2023-04-25T06:17:07;10.03;;;6.10;;
15712;SDS011;7957;51.608;6.916;2023-04-25T06:19:34;12.97;;;6.87;;
15712;SDS011;7957;51.608;6.916;2023-04-25T06:22:01;12.20;;;6.30;;
15712;SDS011;7957;51.608;6.916;2023-04-25T06:24:28;12.30;;;6.57;;
15712;SDS011;7957;51.608;6.916;2023-04-25T06:26:55;13.53;;;6.73;;
15712;SDS011;7957;51.608;6.916;2023-04-25T06:29:24;13.33;;;6.30;;
15712;SDS011;7957;51.608;6.916;2023-04-25T06:31:51;13.93;;;6.20;;
15712;SDS011;7957;51.608;6.916;2023-04-25T06:34:18;12.30;;;5.47;;
15712;SDS011;7957;51.608;6.916;2023-04-25T06:36:45;11.83;;;5.73;;
15712;SDS011;7957;51.608;6.916;2023-04-25T06:39:12;11.50;;;5.73;;
15712;SDS011;7957;51.608;6.916;2023-04-25T06:41:40;8.10;;;5.03;;
15712;SDS011;7957;51.608;6.916;2023-04-25T06:44:07;9.70;;;5.17;;
15712;SDS011;7957;51.608;6.916;2023-04-25T06:46:35;10.57;;;5.43;;
15712;SDS011;7957;51.608;6.916;2023-04-25T06:49:03;10.67;;;5.50;;
15712;SDS011;7957;51.608;6.916;2023-04-25T06:51:30;12.80;;;5.53;;
15712;SDS011;7957;51.608;6.916;2023-04-25T06:53:57;12.00;;;5.37;;
15712;SDS011;7957;51.608;6.916;2023-04-25T06:56:25;8.20;;;4.07;;
15712;SDS011;7957;51.608;6.916;2023-04-25T06:58:53;10.27;;;5.00;;
15712;SDS011;7957;51.608;6.916;2023-04-25T07:01:20;12.90;;;5.00;;
15712;SDS011;7957;51.608;6.916;2023-04-25T07:03:49;10.37;;;4.93;;
15712;SDS011;7957;51.608;6.916;2023-04-25T07:06:16;10.40;;;4.87;;
15712;SDS011;7957;51.608;6.916;2023-04-25T07:08:43;9.93;;;4.33;;
15712;SDS011;7957;51.608;6.916;2023-04-25T07:11:10;7.87;;;4.00;;
15712;SDS011;7957;51.608;6.916;2023-04-25T07:13:37;8.43;;;4.10;;
15712;SDS011;7957;51.608;6.916;2023-04-25T07:16:04;7.83;;;4.03;;
15712;SDS011;7957;51.608;6.916;2023-04-25T07:18:31;10.20;;;3.87;;
15712;SDS011;7957;51.608;6.916;2023-04-25T07:21:00;8.67;;;4.43;;
15712;SDS011;7957;51.608;6.916;2023-04-25T07:23:27;7.20;;;3.50;;
15712;SDS011;7957;51.608;6.916;2023-04-25T07:25:54;6.20;;;3.27;;
15712;SDS011;7957;51.608;6.916;2023-04-25T07:28:21;8.63;;;4.23;;
15712;SDS011;7957;51.608;6.916;2023-04-25T07:30:48;7.30;;;3.83;;
15712;SDS011;7957;51.608;6.916;2023-04-25T07:33:16;9.83;;;4.10;;
15712;SDS011;7957;51.608;6.916;2023-04-25T07:35:45;9.17;;;3.90;;
15712;SDS011;7957;51.608;6.916;2023-04-25T07:38:14;8.30;;;3.80;;
15712;SDS011;7957;51.608;6.916;2023-04-25T07:44:21;7.23;;;4.03;;
15712;SDS011;7957;51.608;6.916;2023-04-25T07:46:48;15.07;;;4.43;;
15712;SDS011;7957;51.608;6.916;2023-04-25T07:49:18;11.77;;;4.50;;
15712;SDS011;7957;51.608;6.916;2023-04-25T07:51:46;13.47;;;4.57;;
15712;SDS011;7957;51.608;6.916;2023-04-25T07:54:16;14.03;;;4.50;;
15712;SDS011;7957;51.608;6.916;2023-04-25T07:56:44;13.60;;;4.50;;
15712;SDS011;7957;51.608;6.916;2023-04-25T07:59:16;13.33;;;4.53;;
15712;SDS011;7957;51.608;6.916;2023-04-25T08:01:45;12.30;;;4.33;;
15712;SDS011;7957;51.608;6.916;2023-04-25T08:04:12;15.90;;;4.50;;
15712;SDS011;7957;51.608;6.916;2023-04-25T08:06:40;11.13;;;4.30;;
15712;SDS011;7957;51.608;6.916;2023-04-25T08:09:07;13.97;;;4.53;;
15712;SDS011;7957;51.608;6.916;2023-04-25T08:11:37;12.53;;;4.03;;
15712;SDS011;7957;51.608;6.916;2023-04-25T08:14:04;12.97;;;4.43;;
15712;SDS011;7957;51.608;6.916;2023-04-25T08:16:32;12.20;;;3.90;;
15712;SDS011;7957;51.608;6.916;2023-04-25T08:19:00;12.67;;;4.07;;
15712;SDS011;7957;51.608;6.916;2023-04-25T08:21:27;11.97;;;4.37;;
15712;SDS011;7957;51.608;6.916;2023-04-25T08:23:58;11.70;;;3.97;;
15712;SDS011;7957;51.608;6.916;2023-04-25T08:26:26;13.67;;;4.30;;
15712;SDS011;7957;51.608;6.916;2023-04-25T08:28:56;9.73;;;3.60;;
15712;SDS011;7957;51.608;6.916;2023-04-25T08:31:32;7.17;;;3.23;;
15712;SDS011;7957;51.608;6.916;2023-04-25T08:33:59;10.87;;;4.00;;
15712;SDS011;7957;51.608;6.916;2023-04-25T08:36:26;9.10;;;3.93;;
15712;SDS011;7957;51.608;6.916;2023-04-25T08:38:54;10.57;;;3.40;;
15712;SDS011;7957;51.608;6.916;2023-04-25T08:41:21;9.33;;;3.77;;
15712;SDS011;7957;51.608;6.916;2023-04-25T08:43:48;7.57;;;3.50;;
15712;SDS011;7957;51.608;6.916;2023-04-25T08:46:20;10.93;;;4.00;;
15712;SDS011;7957;51.608;6.916;2023-04-25T08:48:47;11.63;;;3.93;;
15712;SDS011;7957;51.608;6.916;2023-04-25T08:51:21;11.80;;;3.93;;
15712;SDS011;7957;51.608;6.916;2023-04-25T08:53:53;10.57;;;3.43;;
15712;SDS011;7957;51.608;6.916;2023-04-25T08:56:23;9.97;;;3.83;;
15712;SDS011;7957;51.608;6.916;2023-04-25T08:58:51;10.17;;;3.33;;
15712;SDS011;7957;51.608;6.916;2023-04-25T09:01:20;13.23;;;3.97;;
15712;SDS011;7957;51.608;6.916;2023-04-25T09:03:47;11.30;;;3.70;;
15712;SDS011;7957;51.608;6.916;2023-04-25T09:06:15;9.47;;;3.57;;
15712;SDS011;7957;51.608;6.916;2023-04-25T09:08:44;11.63;;;4.03;;
15712;SDS011;7957;51.608;6.916;2023-04-25T09:11:11;9.10;;;3.10;;
15712;SDS011;7957;51.608;6.916;2023-04-25T09:13:40;9.17;;;3.10;;
15712;SDS011;7957;51.608;6.916;2023-04-25T09:16:07;9.00;;;3.67;;
15712;SDS011;7957;51.608;6.916;2023-04-25T09:18:36;10.03;;;3.10;;
15712;SDS011;7957;51.608;6.916;2023-04-25T09:21:07;8.77;;;3.23;;
15712;SDS011;7957;51.608;6.916;2023-04-25T09:27:12;8.87;;;2.77;;
15712;SDS011;7957;51.608;6.916;2023-04-25T09:29:58;7.73;;;2.73;;
15712;SDS011;7957;51.608;6.916;2023-04-25T09:32:33;9.77;;;3.03;;
15712;SDS011;7957;51.608;6.916;2023-04-25T09:35:26;9.30;;;3.10;;
15712;SDS011;7957;51.608;6.916;2023-04-25T09:37:57;11.60;;;3.20;;
15712;SDS011;7957;51.608;6.916;2023-04-25T09:40:25;4.77;;;2.23;;
15712;SDS011;7957;51.608;6.916;2023-04-25T09:42:54;9.83;;;2.97;;
15712;SDS011;7957;51.608;6.916;2023-04-25T09:45:26;9.90;;;3.37;;
15712;SDS011;7957;51.608;6.916;2023-04-25T09:47:57;5.90;;;2.80;;
15712;SDS011;7957;51.608;6.916;2023-04-25T09:50:35;9.00;;;2.90;;
15712;SDS011;7957;51.608;6.916;2023-04-25T09:53:02;6.13;;;2.40;;
15712;SDS011;7957;51.608;6.916;2023-04-25T09:55:31;7.57;;;2.77;;
15712;SDS011;7957;51.608;6.916;2023-04-25T09:58:00;7.07;;;2.97;;
15712;SDS011;7957;51.608;6.916;2023-04-25T10:00:30;6.43;;;3.03;;
15712;SDS011;7957;51.608;6.916;2023-04-25T10:02:59;6.00;;;2.70;;
15712;SDS011;7957;51.608;6.916;2023-04-25T10:05:29;6.77;;;2.67;;
15712;SDS011;7957;51.608;6.916;2023-04-25T10:08:00;10.27;;;2.73;;
15712;SDS011;7957;51.608;6.916;2023-04-25T10:10:29;7.77;;;2.53;;
15712;SDS011;7957;51.608;6.916;2023-04-25T10:13:01;10.50;;;3.20;;
15712;SDS011;7957;51.608;6.916;2023-04-25T10:15:30;8.40;;;2.37;;
15712;SDS011;7957;51.608;6.916;2023-04-25T10:18:00;5.53;;;2.07;;
15712;SDS011;7957;51.608;6.916;2023-04-25T10:20:27;7.97;;;2.73;;
15712;SDS011;7957;51.608;6.916;2023-04-25T10:22:55;7.23;;;2.70;;
15712;SDS011;7957;51.608;6.916;2023-04-25T10:25:32;10.47;;;2.80;;
15712;SDS011;7957;51.608;6.916;2023-04-25T10:28:00;6.67;;;2.30;;
15712;SDS011;7957;51.608;6.916;2023-04-25T10:30:29;10.83;;;2.57;;
15712;SDS011;7957;51.608;6.916;2023-04-25T10:32:56;8.33;;;2.73;;
15712;SDS011;7957;51.608;6.916;2023-04-25T10:35:26;11.03;;;3.10;;
15712;SDS011;7957;51.608;6.916;2023-04-25T10:38:01;8.27;;;2.63;;
15712;SDS011;7957;51.608;6.916;2023-04-25T10:40:30;9.10;;;2.73;;
15712;SDS011;7957;51.608;6.916;2023-04-25T10:45:58;10.13;;;2.70;;
15712;SDS011;7957;51.608;6.916;2023-04-25T10:48:26;9.30;;;2.67;;
15712;SDS011;7957;51.608;6.916;2023-04-25T10:51:06;11.53;;;2.80;;
15712;SDS011;7957;51.608;6.916;2023-04-25T10:53:35;9.10;;;2.67;;
15712;SDS011;7957;51.608;6.916;2023-04-25T10:56:09;6.40;;;2.43;;
15712;SDS011;7957;51.608;6.916;2023-04-25T10:58:41;8.33;;;2.47;;
15712;SDS011;7957;51.608;6.916;2023-04-25T11:01:09;4.80;;;2.03;;
15712;SDS011;7957;51.608;6.916;2023-04-25T11:03:38;8.30;;;2.40;;
15712;SDS011;7957;51.608;6.916;2023-04-25T11:06:06;6.57;;;2.40;;
15712;SDS011;7957;51.608;6.916;2023-04-25T11:08:46;5.03;;;2.23;;
15712;SDS011;7957;51.608;6.916;2023-04-25T11:11:15;5.73;;;2.50;;
15712;SDS011;7957;51.608;6.916;2023-04-25T11:13:42;6.47;;;2.23;;
15712;SDS011;7957;51.608;6.916;2023-04-25T11:16:10;7.03;;;2.10;;
15712;SDS011;7957;51.608;6.916;2023-04-25T11:18:37;10.27;;;2.43;;
15712;SDS011;7957;51.608;6.916;2023-04-25T11:21:05;8.27;;;1.97;;
15712;SDS011;7957;51.608;6.916;2023-04-25T11:23:32;11.33;;;2.53;;
15712;SDS011;7957;51.608;6.916;2023-04-25T11:26:16;4.30;;;1.90;;
15712;SDS011;7957;51.608;6.916;2023-04-25T11:28:45;7.27;;;2.10;;
15712;SDS011;7957;51.608;6.916;2023-04-25T11:31:12;4.20;;;2.13;;
15712;SDS011;7957;51.608;6.916;2023-04-25T11:33:39;10.77;;;2.50;;
15712;SDS011;7957;51.608;6.916;2023-04-25T11:36:07;7.33;;;2.17;;
15712;SDS011;7957;51.608;6.916;2023-04-25T11:38:35;8.87;;;2.17;;
15712;SDS011;7957;51.608;6.916;2023-04-25T11:41:02;5.63;;;2.13;;
15712;SDS011;7957;51.608;6.916;2023-04-25T11:43:32;6.13;;;1.90;;
15712;SDS011;7957;51.608;6.916;2023-04-25T11:45:59;3.73;;;1.70;;
15712;SDS011;7957;51.608;6.916;2023-04-25T11:48:26;9.13;;;2.33;;
15712;SDS011;7957;51.608;6.916;2023-04-25T11:50:53;5.00;;;1.83;;
15712;SDS011;7957;51.608;6.916;2023-04-25T11:53:20;5.50;;;1.80;;
15712;SDS011;7957;51.608;6.916;2023-04-25T11:55:49;4.97;;;2.20;;
15712;SDS011;7957;51.608;6.916;2023-04-25T11:58:16;5.57;;;1.90;;
15712;SDS011;7957;51.608;6.916;2023-04-25T12:01:02;6.67;;;1.90;;
15712;SDS011;7957;51.608;6.916;2023-04-25T12:03:29;4.43;;;1.83;;
15712;SDS011;7957;51.608;6.916;2023-04-25T12:06:02;7.60;;;2.43;;
15712;SDS011;7957;51.608;6.916;2023-04-25T12:08:30;6.07;;;1.93;;
15712;SDS011;7957;51.608;6.916;2023-04-25T12:10:57;5.10;;;1.70;;
15712;SDS011;7957;51.608;6.916;2023-04-25T12:13:25;3.73;;;1.97;;
15712;SDS011;7957;51.608;6.916;2023-04-25T12:15:53;3.60;;;1.80;;
15712;SDS011;7957;51.608;6.916;2023-04-25T12:18:24;8.20;;;2.00;;
15712;SDS011;7957;51.608;6.916;2023-04-25T12:20:52;3.30;;;1.67;;
15712;SDS011;7957;51.608;6.916;2023-04-25T12:23:25;5.30;;;2.03;;
15712;SDS011;7957;51.608;6.916;2023-04-25T12:25:53;7.77;;;2.33;;
15712;SDS011;7957;51.608;6.916;2023-04-25T12:28:21;3.13;;;1.83;;
15712;SDS011;7957;51.608;6.916;2023-04-25T12:30:53;3.73;;;1.97;;
15712;SDS011;7957;51.608;6.916;2023-04-25T12:33:26;6.90;;;2.77;;
15712;SDS011;7957;51.608;6.916;2023-04-25T12:35:54;9.40;;;3.00;;
15712;SDS011;7957;51.608;6.916;2023-04-25T12:38:23;7.90;;;3.03;;
15712;SDS011;7957;51.608;6.916;2023-04-25T12:40:50;5.33;;;2.60;;
15712;SDS011;7957;51.608;6.916;2023-04-25T12:43:18;5.57;;;2.37;;
15712;SDS011;7957;51.608;6.916;2023-04-25T12:45:46;8.50;;;2.20;;
15712;SDS011;7957;51.608;6.916;2023-04-25T12:48:14;6.43;;;2.30;;
15712;SDS011;7957;51.608;6.916;2023-04-25T12:50:43;6.87;;;2.13;;
15712;SDS011;7957;51.608;6.916;2023-04-25T12:53:12;6.43;;;2.30;;
15712;SDS011;7957;51.608;6.916;2023-04-25T12:55:39;6.80;;;2.10;;
15712;SDS011;7957;51.608;6.916;2023-04-25T12:58:06;6.57;;;2.43;;
15712;SDS011;7957;51.608;6.916;2023-04-25T13:00:33;8.67;;;2.67;;
15712;SDS011;7957;51.608;6.916;2023-04-25T13:03:00;7.07;;;2.33;;
15712;SDS011;7957;51.608;6.916;2023-04-25T13:05:28;5.80;;;2.50;;
15712;SDS011;7957;51.608;6.916;2023-04-25T13:07:56;5.37;;;2.17;;
15712;SDS011;7957;51.608;6.916;2023-04-25T13:10:24;7.93;;;2.70;;
15712;SDS011;7957;51.608;6.916;2023-04-25T13:12:51;6.43;;;2.37;;
15712;SDS011;7957;51.608;6.916;2023-04-25T13:15:19;8.00;;;2.43;;
15712;SDS011;7957;51.608;6.916;2023-04-25T13:17:46;10.20;;;2.90;;
15712;SDS011;7957;51.608;6.916;2023-04-25T13:20:14;9.73;;;2.63;;
15712;SDS011;7957;51.608;6.916;2023-04-25T13:22:42;10.90;;;3.00;;
15712;SDS011;7957;51.608;6.916;2023-04-25T13:25:12;8.00;;;2.57;;
15712;SDS011;7957;51.608;6.916;2023-04-25T13:27:39;10.70;;;2.83;;
15712;SDS011;7957;51.608;6.916;2023-04-25T13:30:06;6.57;;;2.53;;
15712;SDS011;7957;51.608;6.916;2023-04-25T13:32:34;7.70;;;2.70;;
15712;SDS011;7957;51.608;6.916;2023-04-25T13:35:02;9.67;;;2.60;;
15712;SDS011;7957;51.608;6.916;2023-04-25T13:37:36;10.47;;;2.67;;
15712;SDS011;7957;51.608;6.916;2023-04-25T13:40:05;6.47;;;2.00;;
15712;SDS011;7957;51.608;6.916;2023-04-25T13:42:36;7.00;;;2.10;;
15712;SDS011;7957;51.608;6.916;2023-04-25T13:45:16;4.83;;;1.90;;
15712;SDS011;7957;51.608;6.916;2023-04-25T13:47:44;7.10;;;2.40;;
15712;SDS011;7957;51.608;6.916;2023-04-25T13:50:11;4.53;;;2.03;;
15712;SDS011;7957;51.608;6.916;2023-04-25T13:52:38;7.63;;;2.27;;
15712;SDS011;7957;51.608;6.916;2023-04-25T13:55:05;6.50;;;2.17;;
15712;SDS011;7957;51.608;6.916;2023-04-25T13:57:44;4.40;;;2.00;;
15712;SDS011;7957;51.608;6.916;2023-04-25T14:00:12;4.67;;;1.60;;
15712;SDS011;7957;51.608;6.916;2023-04-25T14:02:40;8.47;;;1.93;;
15712;SDS011;7957;51.608;6.916;2023-04-25T14:05:07;3.83;;;1.70;;
15712;SDS011;7957;51.608;6.916;2023-04-25T14:07:34;6.47;;;1.90;;
15712;SDS011;7957;51.608;6.916;2023-04-25T14:10:01;5.37;;;1.67;;
15712;SDS011;7957;51.608;6.916;2023-04-25T14:12:30;5.03;;;1.40;;
15712;SDS011;7957;51.608;6.916;2023-04-25T14:14:59;2.77;;;1.57;;
15712;SDS011;7957;51.608;6.916;2023-04-25T14:17:26;3.80;;;1.53;;
15712;SDS011;7957;51.608;6.916;2023-04-25T14:19:53;5.20;;;1.80;;
15712;SDS011;7957;51.608;6.916;2023-04-25T14:22:21;5.73;;;1.70;;
15712;SDS011;7957;51.608;6.916;2023-04-25T14:24:48;4.43;;;1.60;;
15712;SDS011;7957;51.608;6.916;2023-04-25T14:27:15;5.23;;;2.20;;
15712;SDS011;7957;51.608;6.916;2023-04-25T14:29:42;5.83;;;2.00;;
15712;SDS011;7957;51.608;6.916;2023-04-25T14:32:11;6.27;;;1.60;;
15712;SDS011;7957;51.608;6.916;2023-04-25T14:34:38;5.93;;;2.00;;
15712;SDS011;7957;51.608;6.916;2023-04-25T14:37:05;4.93;;;2.00;;
15712;SDS011;7957;51.608;6.916;2023-04-25T14:39:32;5.33;;;2.30;;
15712;SDS011;7957;51.608;6.916;2023-04-25T14:41:59;6.73;;;2.23;;
15712;SDS011;7957;51.608;6.916;2023-04-25T14:44:26;5.60;;;2.00;;
15712;SDS011;7957;51.608;6.916;2023-04-25T14:46:53;5.17;;;1.80;;
15712;SDS011;7957;51.608;6.916;2023-04-25T14:49:22;6.17;;;2.10;;
15712;SDS011;7957;51.608;6.916;2023-04-25T14:51:49;3.70;;;2.17;;
15712;SDS011;7957;51.608;6.916;2023-04-25T14:54:16;6.47;;;2.17;;
15712;SDS011;7957;51.608;6.916;2023-04-25T14:56:43;7.40;;;2.03;;
15712;SDS011;7957;51.608;6.916;2023-04-25T14:59:10;4.20;;;1.77;;
15712;SDS011;7957;51.608;6.916;2023-04-25T15:01:37;4.37;;;1.80;;
15712;SDS011;7957;51.608;6.916;2023-04-25T15:04:05;5.53;;;2.00;;
15712;SDS011;7957;51.608;6.916;2023-04-25T15:06:34;6.40;;;2.00;;
15712;SDS011;7957;51.608;6.916;2023-04-25T15:09:04;4.53;;;1.97;;
15712;SDS011;7957;51.608;6.916;2023-04-25T15:11:31;4.93;;;2.00;;
15712;SDS011;7957;51.608;6.916;2023-04-25T15:13:58;5.33;;;2.60;;
15712;SDS011;7957;51.608;6.916;2023-04-25T15:16:26;4.47;;;1.97;;
15712;SDS011;7957;51.608;6.916;2023-04-25T15:18:53;3.80;;;2.00;;